Time;durP1;ratioP1;P1;durP2;ratioP2;P2;SDS_P1;SDS_P2;PMS_P1;PMS_P2;Temp;Humidity;BMP_temperature;BMP_pressure;BME280_temperature;BME280_humidity;BME280_pressure;Samples;Min_cycle;Max_cycle;Signal;HPM_P1;HPM_P2
2023/04/09 00:01:48;;;;;;;36.92;30.73;;;;;;;8.73;100.00;102404.69;4981054;28;20403;-69
2023/04/09 00:04:13;;;;;;;34.13;30.42;;;;;;;8.74;100.00;102409.09;4979960;28;20058;-70
2023/04/09 00:06:38;;;;;;;35.63;30.80;;;;;;;8.72;100.00;102403.81;4979780;28;20027;-69
2023/04/09 00:09:04;;;;;;;33.40;28.70;;;;;;;8.75;100.00;102403.09;4980085;28;20030;-70
2023/04/09 00:11:30;;;;;;;34.30;29.75;;;;;;;8.74;100.00;102403.91;4979298;28;20026;-69
2023/04/09 00:13:56;;;;;;;33.90;29.35;;;;;;;8.73;100.00;102389.19;4973886;28;20222;-70
2023/04/09 00:16:22;;;;;;;32.42;28.98;;;;;;;8.74;100.00;102403.91;4973294;28;20030;-70
2023/04/09 00:18:47;;;;;;;33.95;29.25;;;;;;;8.74;100.00;102396.16;4976232;28;20035;-70
2023/04/09 00:21:12;;;;;;;32.90;29.40;;;;;;;8.74;100.00;102393.56;4972940;28;20058;-70
2023/04/09 00:23:38;;;;;;;30.08;26.77;;;;;;;8.74;100.00;102396.16;4976746;28;20030;-69
2023/04/09 00:26:03;;;;;;;32.38;28.95;;;;;;;8.73;100.00;102399.53;4971938;28;20106;-68
2023/04/09 00:28:28;;;;;;;29.38;26.27;;;;;;;8.72;100.00;102388.31;4973856;28;20031;-70
2023/04/09 00:30:54;;;;;;;29.55;26.42;;;;;;;8.73;100.00;102389.19;4974009;28;20034;-70
2023/04/09 00:33:19;;;;;;;29.58;26.48;;;;;;;8.73;100.00;102386.59;4973030;28;20374;-70
2023/04/09 00:35:45;;;;;;;28.35;25.27;;;;;;;8.72;100.00;102384.81;4975502;28;20479;-69
2023/04/09 00:38:10;;;;;;;29.05;25.95;;;;;;;8.72;100.00;102384.81;4973966;28;20038;-69
2023/04/09 00:40:36;;;;;;;30.73;27.42;;;;;;;8.71;100.00;102386.50;4968275;28;20411;-70
2023/04/09 00:43:01;;;;;;;28.05;25.15;;;;;;;8.71;100.00;102383.91;4971874;28;20062;-70
2023/04/09 00:45:27;;;;;;;28.92;25.92;;;;;;;8.71;100.00;102391.69;4968367;28;20034;-70
2023/04/09 00:47:52;;;;;;;27.23;24.30;;;;;;;8.71;100.00;102383.00;4965989;28;20027;-70
2023/04/09 00:50:18;;;;;;;26.70;23.83;;;;;;;8.71;100.00;102381.34;4968567;28;20039;-70
2023/04/09 00:52:43;;;;;;;26.58;23.88;;;;;;;8.70;100.00;102381.25;4981377;28;20080;-70
2023/04/09 00:55:09;;;;;;;27.48;24.58;;;;;;;8.70;100.00;102383.81;4985692;28;20053;-69
2023/04/09 00:57:34;;;;;;;27.55;24.73;;;;;;;8.69;100.00;102376.88;4986768;28;20058;-69
2023/04/09 01:00:00;;;;;;;26.35;23.63;;;;;;;8.68;100.00;102370.81;4986679;28;20379;-70
2023/04/09 01:02:27;;;;;;;27.50;24.60;;;;;;;8.65;100.00;102379.25;4973214;28;20110;-70
2023/04/09 01:04:52;;;;;;;27.30;24.08;;;;;;;8.66;100.00;102377.56;4985294;28;20022;-70
2023/04/09 01:07:26;;;;;;;27.05;23.48;;;;;;;8.64;100.00;102380.06;4986893;28;20026;-70
2023/04/09 01:10:10;;;;;;;28.35;25.33;;;;;;;8.64;100.00;102374.88;4980536;28;20072;-70
2023/04/09 01:12:49;;;;;;;26.95;24.00;;;;;;;8.65;100.00;102368.91;4982132;28;20027;-70
2023/04/09 01:15:24;;;;;;;26.60;23.73;;;;;;;8.64;100.00;102369.72;4986077;28;20062;-70
2023/04/09 01:17:53;;;;;;;28.55;25.08;;;;;;;8.64;100.00;102369.72;4980449;28;20033;-70
2023/04/09 01:20:27;;;;;;;27.90;25.00;;;;;;;8.62;100.00;102360.97;4981923;28;20042;-69
2023/04/09 01:23:10;;;;;;;28.25;25.08;;;;;;;8.58;100.00;102364.13;4978308;28;20023;-70
2023/04/09 01:26:01;;;;;;;29.35;25.63;;;;;;;8.59;100.00;102365.03;4980545;28;20406;-70
2023/04/09 01:28:35;;;;;;;27.85;24.88;;;;;;;8.58;100.00;102358.97;4969456;28;20033;-70
2023/04/09 01:31:12;;;;;;;30.15;26.88;;;;;;;8.58;100.00;102361.56;4973886;28;20031;-70
2023/04/09 01:33:39;;;;;;;27.90;24.92;;;;;;;8.59;100.00;102365.03;4971629;28;20042;-70
2023/04/09 01:36:05;;;;;;;27.88;24.20;;;;;;;8.58;100.00;102360.69;4978520;28;20018;-70
2023/04/09 01:38:32;;;;;;;29.17;25.40;;;;;;;8.58;100.00;102361.56;4970725;28;20599;-69
2023/04/09 01:41:00;;;;;;;28.38;25.40;;;;;;;8.58;100.00;102361.56;4978928;28;20474;-70
2023/04/09 01:43:26;;;;;;;31.05;26.73;;;;;;;8.57;100.00;102356.28;4967466;28;20114;-70
2023/04/09 01:45:52;;;;;;;29.85;25.73;;;;;;;8.57;100.00;102356.28;4975939;28;20030;-70
2023/04/09 01:48:19;;;;;;;29.42;26.30;;;;;;;8.54;100.00;102351.81;4985531;28;20072;-69
2023/04/09 01:50:45;;;;;;;31.23;27.83;;;;;;;8.54;100.00;102351.81;4974409;28;20031;-70
2023/04/09 01:53:11;;;;;;;30.75;26.73;;;;;;;8.52;100.00;102349.13;4982300;28;20025;-69
2023/04/09 01:55:36;;;;;;;32.83;28.50;;;;;;;8.53;100.00;102355.16;4975630;28;20033;-70
2023/04/09 01:58:01;;;;;;;30.08;26.65;;;;;;;8.52;100.00;102355.97;4982168;28;20030;-70
2023/04/09 02:00:36;;;;;;;30.98;26.95;;;;;;;8.52;100.00;102361.13;4976441;28;20025;-70
2023/04/09 02:03:20;;;;;;;32.80;28.75;;;;;;;8.52;100.00;102353.38;4982112;28;20023;-70
2023/04/09 02:05:59;;;;;;;33.00;28.50;;;;;;;8.50;100.00;102360.13;4971737;28;20027;-70
2023/04/09 02:08:26;;;;;;;33.88;28.05;;;;;;;8.49;100.00;102358.38;4979966;28;20038;-70
2023/04/09 02:10:57;;;;;;;33.55;28.83;;;;;;;8.48;100.00;102356.56;4982681;28;21402;-69
2023/04/09 02:13:25;;;;;;;32.30;28.05;;;;;;;8.48;100.00;102357.47;4986480;28;20018;-70
2023/04/09 02:15:51;;;;;;;34.67;28.48;;;;;;;8.46;100.00;102358.13;4981564;28;20030;-70
2023/04/09 02:18:27;;;;;;;32.05;27.75;;;;;;;8.46;100.00;102350.38;4986577;28;20543;-70
2023/04/09 02:20:54;;;;;;;34.70;29.10;;;;;;;8.44;100.00;102350.28;4976525;28;20095;-70
2023/04/09 02:23:20;;;;;;;34.35;28.00;;;;;;;8.44;100.00;102345.13;4976054;28;20027;-70
2023/04/09 02:25:46;;;;;;;33.15;29.55;;;;;;;8.46;100.00;102352.97;4982578;28;20022;-70
2023/04/09 02:28:11;;;;;;;32.90;28.38;;;;;;;8.44;100.00;102345.13;4979744;28;20050;-69
2023/04/09 02:30:36;;;;;;;33.67;28.98;;;;;;;8.44;100.00;102344.25;4979699;28;20118;-70
2023/04/09 02:33:02;;;;;;;34.28;29.05;;;;;;;8.43;100.00;102335.59;4985999;28;20089;-70
2023/04/09 02:35:27;;;;;;;34.00;29.80;;;;;;;8.44;100.00;102344.25;4981559;28;20019;-70
2023/04/09 02:37:53;;;;;;;36.25;30.48;;;;;;;8.44;100.00;102336.50;4977504;28;20030;-70
2023/04/09 02:40:18;;;;;;;36.00;30.00;;;;;;;8.44;100.00;102341.66;4975597;28;20033;-70
2023/04/09 02:42:43;;;;;;;35.65;31.17;;;;;;;8.38;100.00;102340.44;4984085;28;20034;-70
2023/04/09 02:45:09;;;;;;;36.10;30.80;;;;;;;8.39;100.00;102342.25;4969970;28;20023;-70
2023/04/09 02:47:34;;;;;;;37.22;31.75;;;;;;;8.36;100.00;102341.16;4969913;28;20026;-70
2023/04/09 02:49:59;;;;;;;38.78;30.85;;;;;;;8.33;100.00;102341.84;4988037;28;20415;-70
2023/04/09 02:52:25;;;;;;;37.30;30.30;;;;;;;8.27;100.00;102341.47;4987674;28;20040;-70
2023/04/09 02:54:51;;;;;;;37.90;32.17;;;;;;;8.23;100.00;102335.19;4968230;28;20117;-70
2023/04/09 02:57:17;;;;;;;39.33;32.00;;;;;;;8.21;100.00;102336.78;4954135;28;20362;-70
2023/04/09 02:59:42;;;;;;;37.50;32.35;;;;;;;8.22;100.00;102332.53;4958113;28;20242;-70
2023/04/09 03:02:07;;;;;;;37.97;31.63;;;;;;;8.20;100.00;102323.78;4969305;28;20022;-70
2023/04/09 03:04:32;;;;;;;40.17;31.75;;;;;;;8.16;100.00;102333.91;4959712;28;20073;-70
2023/04/09 03:06:58;;;;;;;39.55;32.63;;;;;;;8.14;100.00;102332.91;4970208;28;20015;-70
2023/04/09 03:09:23;;;;;;;40.63;32.33;;;;;;;8.15;100.00;102329.50;4968564;28;20027;-70
2023/04/09 03:11:48;;;;;;;39.75;31.85;;;;;;;8.17;100.00;102327.94;4968554;28;20561;-70
2023/04/09 03:14:14;;;;;;;39.40;32.92;;;;;;;8.18;100.00;102321.09;4969091;28;20066;-70
2023/04/09 03:16:39;;;;;;;38.75;32.30;;;;;;;8.20;100.00;102324.66;4971661;28;20058;-70
2023/04/09 03:19:04;;;;;;;38.40;32.28;;;;;;;8.21;100.00;102318.69;4973925;28;20027;-70
2023/04/09 03:21:30;;;;;;;37.33;30.50;;;;;;;8.23;100.00;102318.78;4976912;28;20524;-69
2023/04/09 03:23:56;;;;;;;38.90;32.40;;;;;;;8.22;100.00;102322.19;4960218;28;20011;-70
2023/04/09 03:26:21;;;;;;;38.67;32.33;;;;;;;8.18;100.00;102321.09;4969083;28;20034;-69
2023/04/09 03:28:47;;;;;;;43.25;34.95;;;;;;;8.16;100.00;102315.81;4971356;28;20077;-70
2023/04/09 03:31:12;;;;;;;39.97;32.45;;;;;;;8.16;100.00;102317.50;4975762;28;20068;-70
2023/04/09 03:33:38;;;;;;;41.53;33.17;;;;;;;8.16;100.00;102313.25;4982590;28;20400;-70
2023/04/09 03:36:04;;;;;;;45.20;35.67;;;;;;;8.14;100.00;102309.66;4979764;28;20105;-70
2023/04/09 03:38:29;;;;;;;41.53;33.72;;;;;;;8.12;100.00;102306.06;4974092;28;20030;-70
2023/04/09 03:40:55;;;;;;;44.10;33.83;;;;;;;8.10;100.00;102307.66;4976347;28;20049;-70
2023/04/09 03:43:20;;;;;;;45.90;35.90;;;;;;;8.06;100.00;102308.25;4972138;28;20049;-70
2023/04/09 03:45:45;;;;;;;45.85;35.55;;;;;;;8.05;100.00;102303.88;4977193;28;20027;-70
2023/04/09 03:48:11;;;;;;;44.03;34.60;;;;;;;8.02;100.00;102308.84;4970576;28;20030;-70
2023/04/09 03:50:39;;;;;;;45.65;35.47;;;;;;;8.00;100.00;102310.44;4969455;28;20030;-70
2023/04/09 03:53:05;;;;;;;44.17;36.15;;;;;;;7.98;100.00;102309.44;4972202;28;20026;-70
2023/04/09 03:55:30;;;;;;;44.60;34.58;;;;;;;7.95;100.00;102301.50;4963924;28;20349;-70
2023/04/09 03:57:55;;;;;;;45.78;34.95;;;;;;;7.96;100.00;102303.28;4971441;28;20044;-70
2023/04/09 04:00:21;;;;;;;45.55;35.33;;;;;;;7.95;100.00;102301.50;4971301;28;20030;-70
2023/04/09 04:02:46;;;;;;;44.50;32.38;;;;;;;7.92;100.00;102305.66;4969405;28;20073;-69
2023/04/09 04:05:12;;;;;;;39.47;32.00;;;;;;;7.91;100.00;102308.13;4969563;28;20022;-69
2023/04/09 04:07:37;;;;;;;36.72;30.95;;;;;;;7.87;100.00;102301.88;4968652;28;21053;-70
2023/04/09 04:10:06;;;;;;;37.20;29.00;;;;;;;7.83;100.00;102302.44;4959136;28;20109;-70
2023/04/09 04:12:31;;;;;;;36.20;28.25;;;;;;;7.79;100.00;102309.09;4969506;28;20030;-69
2023/04/09 04:14:57;;;;;;;35.13;29.20;;;;;;;7.79;100.00;102305.63;4968692;28;20069;-70
2023/04/09 04:17:22;;;;;;;35.28;28.15;;;;;;;7.76;100.00;102313.16;4982209;28;20034;-69
2023/04/09 04:19:47;;;;;;;34.80;28.88;;;;;;;7.74;100.00;102314.72;4986615;28;20066;-70
2023/04/09 04:22:12;;;;;;;36.47;28.40;;;;;;;7.63;100.00;102314.00;4982832;28;20049;-69
2023/04/09 04:24:38;;;;;;;35.70;28.08;;;;;;;7.56;100.00;102317.88;4975101;28;20022;-69
2023/04/09 04:27:03;;;;;;;35.50;27.63;;;;;;;7.54;100.00;102309.13;4984469;28;20488;-70
2023/04/09 04:29:28;;;;;;;36.40;28.13;;;;;;;7.53;100.00;102308.25;4983693;28;20030;-70
2023/04/09 04:31:54;;;;;;;36.92;28.13;;;;;;;7.50;100.00;102307.16;4983653;28;20030;-70
2023/04/09 04:34:19;;;;;;;37.78;29.27;;;;;;;7.44;100.00;102305.94;4981893;28;20023;-70
2023/04/09 04:36:44;;;;;;;40.88;29.95;;;;;;;7.41;100.00;102302.25;4981926;28;20506;-70
2023/04/09 04:39:10;;;;;;;37.00;27.77;;;;;;;7.41;100.00;102303.13;4970703;28;20018;-70
2023/04/09 04:41:35;;;;;;;35.67;28.08;;;;;;;7.33;100.00;102309.44;4980868;28;20097;-69
2023/04/09 04:44:00;;;;;;;36.30;30.13;;;;;;;7.27;100.00;102309.00;4967279;28;20027;-69
2023/04/09 04:46:26;;;;;;;31.88;27.10;;;;;;;7.16;100.00;102306.59;4958477;28;20049;-70
2023/04/09 04:48:51;;;;;;;37.10;28.13;;;;;;;7.09;100.00;102310.44;4984640;28;20039;-69
2023/04/09 04:51:16;;;;;;;40.42;30.85;;;;;;;6.90;100.00;102310.81;4970991;28;20033;-69
2023/04/09 04:53:41;;;;;;;38.65;28.63;;;;;;;6.89;100.00;102314.16;4974500;28;20565;-70
2023/04/09 04:56:14;;;;;;;37.10;28.10;;;;;;;6.85;100.00;102310.47;4966148;28;20033;-70
2023/04/09 04:58:40;;;;;;;39.15;29.27;;;;;;;6.79;100.00;102309.16;4966540;28;20122;-70
2023/04/09 05:01:06;;;;;;;39.08;28.85;;;;;;;6.73;100.00;102309.59;4971348;28;20038;-70
2023/04/09 05:03:31;;;;;;;35.40;28.10;;;;;;;6.66;100.00;102307.38;4979204;28;20111;-70
2023/04/09 05:05:56;;;;;;;42.55;30.77;;;;;;;6.60;100.00;102315.59;4966721;28;20047;-69
2023/04/09 05:08:21;;;;;;;37.85;29.95;;;;;;;6.52;100.00;102315.03;4968000;28;20035;-69
2023/04/09 05:10:47;;;;;;;35.63;28.20;;;;;;;6.53;100.00;102309.06;4969388;28;20278;-70
2023/04/09 05:13:12;;;;;;;37.42;28.73;;;;;;;6.49;100.00;102310.53;4969504;28;20081;-70
2023/04/09 05:15:38;;;;;;;39.97;28.88;;;;;;;6.47;100.00;102311.22;4953240;28;20101;-70
2023/04/09 05:18:04;;;;;;;40.05;30.25;;;;;;;6.40;100.00;102309.88;4968508;28;20042;-70
2023/04/09 05:20:30;;;;;;;37.20;27.90;;;;;;;6.41;100.00;102313.34;4968329;28;20456;-69
2023/04/09 05:22:55;;;;;;;39.22;30.33;;;;;;;6.34;100.00;102305.19;4971558;28;20027;-70
2023/04/09 05:25:20;;;;;;;37.45;28.77;;;;;;;6.32;100.00;102305.84;4982773;28;20118;-70
2023/04/09 05:27:45;;;;;;;38.72;29.50;;;;;;;6.34;100.00;102305.19;4986638;28;20560;-70
2023/04/09 05:30:11;;;;;;;37.03;28.55;;;;;;;6.33;100.00;102312.78;4986544;28;20034;-69
2023/04/09 05:32:36;;;;;;;35.63;27.95;;;;;;;6.36;100.00;102313.00;4988384;28;20028;-70
2023/04/09 05:35:02;;;;;;;38.72;30.02;;;;;;;6.35;100.00;102311.22;4989151;28;20382;-69
2023/04/09 05:37:27;;;;;;;36.63;27.42;;;;;;;6.36;100.00;102307.84;4987060;28;20018;-69
2023/04/09 05:39:52;;;;;;;39.58;30.13;;;;;;;6.35;100.00;102318.97;4987312;28;20057;-69
2023/04/09 05:42:18;;;;;;;37.65;29.08;;;;;;;6.33;100.00;102312.78;4978546;28;20102;-69
2023/04/09 05:44:43;;;;;;;42.40;30.45;;;;;;;6.34;100.00;102304.28;4967830;28;20039;-69
2023/04/09 05:47:08;;;;;;;39.83;30.40;;;;;;;6.31;100.00;102304.06;4969268;28;20378;-70
2023/04/09 05:49:33;;;;;;;37.47;28.20;;;;;;;6.34;100.00;102310.31;4968034;28;20085;-70
2023/04/09 05:51:59;;;;;;;36.47;28.00;;;;;;;6.38;100.00;102311.44;4969595;28;20015;-70
2023/04/09 05:54:25;;;;;;;36.78;29.85;;;;;;;6.41;100.00;102309.09;4981833;28;20036;-70
2023/04/09 05:56:51;;;;;;;39.17;29.77;;;;;;;6.43;100.00;102309.19;4973388;28;20122;-69
2023/04/09 05:59:17;;;;;;;38.80;29.33;;;;;;;6.40;100.00;102309.88;4970813;28;20050;-70
2023/04/09 06:01:42;;;;;;;35.63;28.73;;;;;;;6.44;100.00;102309.31;4970020;28;20093;-70
2023/04/09 06:04:07;;;;;;;36.95;28.23;;;;;;;6.43;100.00;102320.41;4970095;28;20110;-70
2023/04/09 06:06:33;;;;;;;38.30;29.58;;;;;;;6.44;100.00;102316.16;4960964;28;20063;-70
2023/04/09 06:08:58;;;;;;;36.60;29.27;;;;;;;6.54;100.00;102322.84;4974119;28;20027;-70
2023/04/09 06:11:24;;;;;;;34.95;29.70;;;;;;;6.53;100.00;102323.66;4965764;28;20023;-69
2023/04/09 06:13:50;;;;;;;39.05;28.95;;;;;;;6.59;100.00;102321.50;4962430;28;20047;-70
2023/04/09 06:16:15;;;;;;;34.90;27.80;;;;;;;6.61;100.00;102327.66;4969991;28;20038;-70
2023/04/09 06:18:41;;;;;;;36.35;28.58;;;;;;;6.59;100.00;102319.84;4968165;28;20023;-70
2023/04/09 06:21:07;;;;;;;37.05;28.48;;;;;;;6.70;100.00;102310.31;4958777;28;20042;-70
2023/04/09 06:23:35;;;;;;;36.40;28.88;;;;;;;6.65;100.00;102329.69;4964329;28;20291;-70
2023/04/09 06:26:00;;;;;;;35.80;27.73;;;;;;;6.71;100.00;102322.38;4969560;28;20037;-70
2023/04/09 06:28:27;;;;;;;36.30;29.42;;;;;;;6.83;100.00;102326.63;4970268;28;20023;-70
2023/04/09 06:30:54;;;;;;;36.60;29.02;;;;;;;6.75;100.00;102322.59;4967421;28;20318;-70
2023/04/09 06:33:19;;;;;;;37.53;28.77;;;;;;;6.94;100.00;102330.84;4971051;28;20479;-70
2023/04/09 06:35:45;;;;;;;38.50;28.83;;;;;;;7.12;100.00;102325.22;4983563;28;20069;-70
2023/04/09 06:38:10;;;;;;;39.60;29.40;;;;;;;7.25;100.00;102336.41;4979003;28;20034;-70
2023/04/09 06:40:37;;;;;;;37.90;28.77;;;;;;;7.39;100.00;102327.94;4961503;28;20223;-70
2023/04/09 06:43:03;;;;;;;34.78;27.23;;;;;;;7.52;100.00;102341.69;4974653;28;20070;-70
2023/04/09 06:45:28;;;;;;;38.58;30.00;;;;;;;7.62;100.00;102344.09;4973798;28;20030;-70
2023/04/09 06:47:53;;;;;;;35.00;28.88;;;;;;;7.76;100.00;102341.53;4961223;28;20046;-70
2023/04/09 06:50:19;;;;;;;36.13;27.55;;;;;;;7.93;100.00;102351.31;4964976;28;20027;-70
2023/04/09 06:52:45;;;;;;;33.97;28.60;;;;;;;8.08;100.00;102345.41;4961794;28;20035;-70
2023/04/09 06:55:10;;;;;;;38.85;29.48;;;;;;;8.25;100.00;102340.47;4971774;28;20038;-70
2023/04/09 06:57:37;;;;;;;33.47;27.92;;;;;;;8.21;100.00;102344.53;4970026;28;20024;-70
2023/04/09 07:00:03;;;;;;;32.72;27.70;;;;;;;8.35;100.00;102348.00;4973102;28;20077;-70
2023/04/09 07:02:28;;;;;;;34.67;27.77;;;;;;;8.39;100.00;102343.94;4954445;28;20414;-70
2023/04/09 07:04:53;;;;;;;36.38;28.83;;;;;;;8.35;100.00;102348.00;4976694;28;20514;-71
2023/04/09 07:07:19;;;;;;;34.55;28.13;;;;;;;8.61;100.00;102355.69;4977271;28;20479;-70
2023/04/09 07:09:45;;;;;;;32.25;27.08;;;;;;;8.85;100.00;102345.16;4964876;28;20041;-70
2023/04/09 07:12:10;;;;;;;34.90;28.70;;;;;;;9.01;100.00;102345.28;4965607;28;20477;-70
2023/04/09 07:14:36;;;;;;;37.58;30.30;;;;;;;9.15;100.00;102346.97;4956637;28;20051;-70
2023/04/09 07:17:01;;;;;;;32.38;27.67;;;;;;;9.42;100.00;102352.06;4962183;28;20035;-70
2023/04/09 07:19:26;;;;;;;32.90;26.20;;;;;;;9.68;100.00;102351.03;4964651;28;20027;-70
2023/04/09 07:21:51;;;;;;;33.95;28.05;;;;;;;9.58;100.00;102349.59;4986378;28;20030;-71
2023/04/09 07:24:17;;;;;;;33.40;27.83;;;;;;;9.91;100.00;102348.91;4975388;28;20046;-70
2023/04/09 07:26:42;;;;;;;34.42;28.10;;;;;;;10.13;100.00;102349.31;4965404;28;20109;-70
2023/04/09 07:29:08;;;;;;;31.60;27.60;;;;;;;10.37;100.00;102359.28;4973928;28;20036;-71
2023/04/09 07:31:33;;;;;;;33.85;28.15;;;;;;;10.66;100.00;102352.28;4968750;28;20034;-70
2023/04/09 07:33:58;;;;;;;31.33;26.92;;;;;;;10.86;100.00;102355.09;4960392;28;20046;-69
2023/04/09 07:36:24;;;;;;;31.65;27.58;;;;;;;10.92;100.00;102350.22;4962166;28;20027;-71
2023/04/09 07:38:50;;;;;;;33.92;27.85;;;;;;;11.23;100.00;102351.00;4987385;28;20080;-70
2023/04/09 07:41:15;;;;;;;30.58;26.90;;;;;;;11.34;100.00;102351.56;4983169;28;20029;-70
2023/04/09 07:43:41;;;;;;;31.58;28.15;;;;;;;11.29;100.00;102346.16;4959794;28;20464;-70
2023/04/09 07:46:06;;;;;;;31.95;28.55;;;;;;;11.64;100.00;102354.00;4979594;28;20037;-70
2023/04/09 07:48:31;;;;;;;31.73;28.33;;;;;;;11.70;100.00;102353.44;4984130;28;20470;-70
2023/04/09 07:50:57;;;;;;;33.17;27.60;;;;;;;11.89;100.00;102350.09;4974285;28;20046;-70
2023/04/09 07:53:22;;;;;;;33.40;28.80;;;;;;;11.47;98.32;102354.03;4980951;28;20018;-70
2023/04/09 07:55:50;;;;;;;30.70;27.48;;;;;;;11.67;100.00;102354.19;4970227;28;20023;-69
2023/04/09 07:58:15;;;;;;;32.67;29.02;;;;;;;11.76;100.00;102346.84;4963520;28;20081;-70
2023/04/09 08:00:40;;;;;;;31.27;27.60;;;;;;;11.67;98.87;102348.09;4966547;28;20038;-70
2023/04/09 08:03:06;;;;;;;32.30;27.42;;;;;;;11.54;99.28;102347.44;4970421;28;20034;-70
2023/04/09 08:05:31;;;;;;;34.42;29.42;;;;;;;11.27;100.00;102348.69;4969817;28;20034;-70
2023/04/09 08:07:56;;;;;;;31.67;27.85;;;;;;;11.25;100.00;102354.56;4982813;28;20036;-70
2023/04/09 08:10:22;;;;;;;32.38;28.65;;;;;;;11.18;100.00;102355.97;4960614;28;20614;-70
2023/04/09 08:12:47;;;;;;;32.55;28.92;;;;;;;10.95;100.00;102346.94;4982863;28;20101;-70
2023/04/09 08:15:13;;;;;;;33.85;30.35;;;;;;;10.77;100.00;102346.00;4977738;28;20054;-69
2023/04/09 08:17:38;;;;;;;34.40;30.58;;;;;;;10.72;100.00;102350.03;4954761;28;20464;-70
2023/04/09 08:20:05;;;;;;;31.60;28.23;;;;;;;10.72;100.00;102341.38;4958526;28;20562;-69
2023/04/09 08:22:30;;;;;;;32.60;29.13;;;;;;;10.90;100.00;102346.69;4959052;28;20448;-70
2023/04/09 08:24:57;;;;;;;33.10;27.75;;;;;;;11.25;100.00;102352.88;4968662;28;20120;-71
2023/04/09 08:27:22;;;;;;;32.60;28.38;;;;;;;11.61;100.00;102349.56;4955748;28;20062;-70
2023/04/09 08:29:47;;;;;;;33.60;29.17;;;;;;;12.00;100.00;102353.19;4954319;28;20099;-71
2023/04/09 08:32:13;;;;;;;32.95;29.42;;;;;;;12.39;100.00;102355.16;4964409;28;20023;-71
2023/04/09 08:34:38;;;;;;;32.10;27.70;;;;;;;12.62;97.90;102350.16;4966660;28;20538;-70
2023/04/09 08:37:03;;;;;;;33.30;29.80;;;;;;;12.66;98.19;102351.19;4963457;28;20519;-71
2023/04/09 08:39:28;;;;;;;33.53;29.88;;;;;;;12.51;95.58;102346.16;4963644;28;20031;-70
2023/04/09 08:42:00;;;;;;;34.03;30.42;;;;;;;12.25;96.21;102344.94;4962229;28;20034;-70
2023/04/09 08:44:26;;;;;;;33.97;29.77;;;;;;;12.08;98.19;102345.78;4980126;28;20612;-70
2023/04/09 08:46:51;;;;;;;33.50;29.42;;;;;;;11.91;99.28;102348.44;4968471;28;20022;-70
2023/04/09 08:49:17;;;;;;;34.38;30.67;;;;;;;11.79;100.00;102346.13;4975920;28;20157;-70
2023/04/09 08:51:45;;;;;;;34.08;30.40;;;;;;;11.62;100.00;102343.53;4967863;28;20054;-70
2023/04/09 08:54:18;;;;;;;35.50;31.85;;;;;;;11.43;100.00;102344.28;4976713;28;20438;-70
2023/04/09 08:56:44;;;;;;;37.90;32.83;;;;;;;11.46;100.00;102344.44;4956262;28;20063;-70
2023/04/09 08:59:09;;;;;;;35.15;31.33;;;;;;;11.31;100.00;102346.22;4948697;28;20026;-70
2023/04/09 09:01:35;;;;;;;35.67;31.88;;;;;;;11.25;100.00;102339.91;4950882;28;20110;-70
2023/04/09 09:04:02;;;;;;;35.22;31.52;;;;;;;11.45;100.00;102342.66;4949460;28;20051;-70
2023/04/09 09:06:31;;;;;;;36.28;32.38;;;;;;;11.75;100.00;102338.97;4951242;28;20027;-70
2023/04/09 09:09:05;;;;;;;35.70;31.23;;;;;;;11.89;100.00;102339.69;4951531;28;20640;-71
2023/04/09 09:11:35;;;;;;;35.85;31.40;;;;;;;11.91;100.00;102347.56;4951085;28;20465;-70
2023/04/09 09:14:03;;;;;;;33.67;30.27;;;;;;;12.09;100.00;102342.38;4950313;28;20059;-70
2023/04/09 09:16:31;;;;;;;35.83;32.05;;;;;;;12.20;100.00;102337.75;4951522;28;20222;-71
2023/04/09 09:18:57;;;;;;;37.50;33.42;;;;;;;12.42;100.00;102338.78;4950241;28;20031;-70
2023/04/09 09:21:26;;;;;;;37.22;33.33;;;;;;;12.70;100.00;102337.53;4950155;28;20078;-70
2023/04/09 09:23:51;;;;;;;34.47;30.77;;;;;;;12.91;99.81;102336.75;4950590;28;20030;-70
2023/04/09 09:26:21;;;;;;;35.60;31.98;;;;;;;12.99;96.59;102342.31;4951284;28;20027;-71
2023/04/09 09:28:48;;;;;;;26.33;23.50;;;;;;;13.03;96.48;102336.41;4951137;28;20335;-70
2023/04/09 09:31:15;;;;;;;30.83;27.63;;;;;;;13.03;95.10;102333.81;4952827;28;20054;-70
2023/04/09 09:33:41;;;;;;;32.72;29.48;;;;;;;12.99;94.58;102335.38;4952257;28;20053;-70
2023/04/09 09:36:09;;;;;;;33.95;30.45;;;;;;;12.98;95.08;102331.00;4952423;28;20031;-70
2023/04/09 09:38:55;;;;;;;33.38;30.00;;;;;;;12.90;96.31;102335.84;4952602;28;20114;-70
2023/04/09 09:41:22;;;;;;;33.20;29.85;;;;;;;13.05;96.76;102329.56;4952486;28;20391;-70
2023/04/09 09:43:48;;;;;;;34.75;31.17;;;;;;;13.20;97.71;102324.19;4952692;28;20135;-71
2023/04/09 09:46:14;;;;;;;33.03;29.63;;;;;;;13.42;94.79;102322.53;4952248;28;20051;-70
2023/04/09 09:48:41;;;;;;;33.45;29.98;;;;;;;13.74;97.52;102319.56;4952609;28;20119;-70
2023/04/09 09:51:09;;;;;;;30.42;27.33;;;;;;;13.94;92.77;102312.59;4952672;28;20031;-70
2023/04/09 09:53:38;;;;;;;31.73;28.33;;;;;;;14.01;88.77;102311.13;4952891;28;20028;-70
2023/04/09 09:56:06;;;;;;;30.15;27.15;;;;;;;13.82;87.01;102305.13;4951864;28;20066;-70
2023/04/09 09:58:37;;;;;;;29.30;26.30;;;;;;;13.74;87.14;102306.53;4952519;28;20042;-71
2023/04/09 10:01:08;;;;;;;31.45;28.25;;;;;;;13.75;87.64;102305.69;4952563;28;20031;-71
2023/04/09 10:03:37;;;;;;;29.25;26.35;;;;;;;13.56;85.12;102302.31;4952423;28;20396;-71
2023/04/09 10:06:03;;;;;;;28.45;25.55;;;;;;;13.66;86.96;102293.19;4952397;28;20548;-70
2023/04/09 10:08:32;;;;;;;26.40;23.70;;;;;;;13.48;81.77;102293.25;4951006;28;20033;-71
2023/04/09 10:10:57;;;;;;;24.33;21.70;;;;;;;13.29;83.45;102293.31;4952440;28;20142;-71
2023/04/09 10:13:34;;;;;;;26.15;23.45;;;;;;;13.08;87.01;102298.47;4952058;28;20114;-70
2023/04/09 10:16:00;;;;;;;28.98;25.92;;;;;;;12.91;88.84;102298.63;4952164;28;20033;-70
2023/04/09 10:18:26;;;;;;;25.75;23.02;;;;;;;12.80;88.69;102292.03;4952108;28;20487;-70
2023/04/09 10:21:09;;;;;;;28.90;25.90;;;;;;;12.94;93.51;102290.94;4951485;28;20035;-71
2023/04/09 10:23:47;;;;;;;28.00;25.02;;;;;;;13.08;92.79;102288.06;4951883;28;20031;-70
2023/04/09 10:26:12;;;;;;;26.00;23.27;;;;;;;13.13;92.96;102285.69;4951380;28;20038;-70
2023/04/09 10:28:37;;;;;;;26.52;23.83;;;;;;;13.05;86.82;102287.94;4951876;28;20215;-71
2023/04/09 10:31:07;;;;;;;27.25;24.35;;;;;;;13.02;90.24;102280.91;4951898;28;20035;-70
2023/04/09 10:33:35;;;;;;;25.90;23.25;;;;;;;13.03;90.39;102284.38;4951933;28;20413;-71
2023/04/09 10:36:09;;;;;;;24.30;21.90;;;;;;;12.87;85.76;102278.47;4951910;28;20039;-71
2023/04/09 10:38:45;;;;;;;24.13;21.73;;;;;;;12.86;89.64;102279.31;4951587;28;20066;-70
2023/04/09 10:41:15;;;;;;;24.10;21.60;;;;;;;12.78;86.11;102272.84;4951708;28;20035;-71
2023/04/09 10:43:41;;;;;;;20.35;18.27;;;;;;;12.90;86.48;102273.41;4949874;28;20062;-71
2023/04/09 10:46:24;;;;;;;22.73;20.02;;;;;;;13.18;89.04;102269.44;4951488;28;20310;-71
2023/04/09 10:49:10;;;;;;;25.90;23.30;;;;;;;13.31;86.67;102265.66;4952001;28;20294;-71
2023/04/09 10:51:37;;;;;;;24.48;21.98;;;;;;;13.54;88.65;102262.31;4951655;28;20069;-70
2023/04/09 10:54:04;;;;;;;25.98;23.38;;;;;;;13.85;89.65;102257.50;4950928;28;20019;-71
2023/04/09 10:56:30;;;;;;;24.48;21.92;;;;;;;14.21;89.47;102248.47;4951793;28;20060;-71
2023/04/09 10:58:55;;;;;;;21.67;19.63;;;;;;;14.38;78.87;102255.25;4951086;28;20035;-71
2023/04/09 11:01:21;;;;;;;21.00;18.80;;;;;;;14.45;76.88;102255.47;4951207;28;20054;-71
2023/04/09 11:04:07;;;;;;;19.25;17.35;;;;;;;14.31;75.41;102253.22;4950520;28;20031;-71
2023/04/09 11:06:36;;;;;;;20.52;18.52;;;;;;;14.13;74.37;102248.16;4951737;28;20027;-71
2023/04/09 11:09:02;;;;;;;20.65;18.55;;;;;;;13.92;77.05;102246.50;4951143;28;20110;-71